Terminal Aerodrome Forecast
Issued by NWS Flagstaff, AZ

Home | Current Version | Previous Version | Text Only | Print | Product List | Glossary On
Versions: 1 2 3 4 5 6 7 8 9 10
635
FTUS45 KFGZ 271139
TAFFLG
TAF
KFLG 271139Z 2712/2812 25016G26KT P6SM SCT050 BKN200
     FM271800 25020G30KT P6SM SCT060 BKN200
     FM280300 24012KT P6SM BKN180=

USA.gov is the U.S. government's official web portal to all federal, state and local government web resources and services.